Skip Navigation Links
NOAA logo - Click to go to the NOAA homepage
NOAA's National Weather Service
Alaska Aviation Weather Unit
  NWS logo - Click to go to the NWS homepage
Left Navbar Graphic     00 AKDT = 08 GMT

   
NOAA is celebrating 200 years of science, service, and stewardship. Visit the NOAA 200th celebration Web site to learn more.
USA.gov is the U.S. Government's official Web portal to all Federal, state and local government Web resources and services.
Facebook
NWS on Facebook

Important Change Regarding the AAWU Web Presence

 

Over the last several months, the AAWU has been working to navigate its webpages to a nationally supported server. Security, as well as other needs, have necessitated the change.  We have been given an extension for the site changeover while we diligently work at addressing feedback received. As of July 14, 2017, aawu.arh.noaa.gov will be discontinued. The new AAWU web address is weather.gov/aawu. It is now live and will run in-parallel with the old site until it is discontinued on July 14, 2017. Please continue to send any feedback or questions regarding the new webpages to nws.ar.aawu.webauthors@noaa.gov.  Thank you for your patience during this time of transition.
AAWU Home :: Display TAF Add Bookmark
TAF PAJN 240646Z 2407/2506  09008KT 4SM RA BR SCT005 BKN030 OVC045
      TEMPO 2407/2410 BKN005 OVC030
     FM241000 10013KT 3SM RA BR SCT003 OVC020
     FM242000 11013KT 6SM -SHRA BR OVC020
     FM250200 10008KT 6SM -SHRA BR FEW005 OVC025=



PAJN 240247Z 07008KT 2SM -RA BR FEW004 BKN025 OVC033 11/11 A2972= SPECI PAJN 240247Z 07008KT 2SM -RA BR FEW004 BKN025 OVC033 11/11 A2972 RMK AO2 SFC VIS 5 P0001= METAR PAJN 240253Z 08008KT 2SM -RA BR FEW004 BKN025 OVC033 11/11 A2972= PAJN 240301Z 08007KT 2SM -RA BR FEW004 BKN038 OVC047 11/11 A2972= PAJN 240301Z 08007KT 2SM -RA BR FEW004 BKN038 OVC047 11/11 A2972 RMK AO2 SFC VIS 3 P0000 T01060106= PAJN 240343Z 09007KT 3SM RA BR SCT003 BKN034 OVC047 11/11 A2972= SPECI PAJN 240343Z 09007KT 3SM RA BR SCT003 BKN034 OVC047 11/11 A2972 RMK AO2 P0002 T01060106= METAR PAJN 240353Z 09006KT 3SM RA BR FEW003 BKN034 OVC047 11/11 A2972= METAR PAJN 240453Z 11006KT 3SM -RA BR FEW006 BKN030 OVC045 11/11 A2972= PAJN 240527Z 09008KT 3SM -RA BR SCT006 BKN027 OVC044 11/11 A2971= SPECI PAJN 240527Z 09008KT 3SM -RA BR SCT006 BKN027 OVC044 11/11 A2971 RMK AO2 SFC VIS 4 P0001 T01060106= METAR PAJN 240553Z 10006KT 3SM -RA BR BKN004 BKN030 OVC044 11/11 A2971= PAJN 240603Z 09007KT 4SM -RA BR BKN006 OVC030 11/11 A2971= SPECI PAJN 240603Z 09007KT 4SM -RA BR BKN006 OVC030 11/11 A2971 RMK AO2 P0001 T01110111= METAR PAJN 240653Z 10009KT 6SM -RA BR BKN005 OVC039 11/11 A2971= METAR PAJN 240753Z 14006KT 9SM -RA BKN006 BKN010 OVC037 11/11 A2971=
 Alaska TAF Map

NOAA's National Weather Service
Alaska Aviation Weather Unit
6930 Sand Lake Road
Anchorage, AK 99502-1845
Disclaimer
Credits
Glossary
Privacy Policy
About Us
Career Opportunities
Contact AAWU Internet Services Site last modified: April, 17th 2012